Terminal Aerodrome Forecast
Issued by NWS

Home | Current Version | Previous Version | Text Only | Print | Product List | Glossary On
Versions: 1 2 3 4 5 6 7 8 9 10 11 12 13 14 15 16 17 18 19 20 21 22
000
FTUS45 KSLC 242114 AAA
TAFBCE
TAF AMD
KBCE 242114Z 2421/2518 14007G17KT P6SM SCT200
     FM242200 23011G16KT P6SM SCT120 SCT200
     FM250200 27007KT P6SM SCT120 SCT200=

USA.gov is the U.S. government's official web portal to all federal, state and local government web resources and services.